Time;durP1;ratioP1;P1;durP2;ratioP2;P2;SDS_P1;SDS_P2;PMS_P1;PMS_P2;Temp;Humidity;BMP_temperature;BMP_pressure;BME280_temperature;BME280_humidity;BME280_pressure;Samples;Min_cycle;Max_cycle;Signal;HPM_P1;HPM_P2
2022/12/30 00:01:18;;;;;;;0.90;0.90;;;;;7.90;96144.00;;;;8370698;28;20625;-86
2022/12/30 00:05:21;;;;;;;0.70;0.70;;;;;7.80;96143.00;;;;8370698;28;20238;-88
2022/12/30 00:09:26;;;;;;;1.55;1.45;;;;;7.80;96139.00;;;;8368057;28;20267;-82
2022/12/30 00:35:30;;;;;;;0.80;0.80;;;;;7.50;96122.00;;;;8368155;28;20196;-83
2022/12/30 00:39:36;;;;;;;0.90;0.90;;;;;7.50;96111.00;;;;8368935;28;20185;-81
2022/12/30 00:44:15;;;;;;;1.33;0.90;;;;;7.50;96125.00;;;;8368918;28;20197;-82
2022/12/30 00:57:02;;;;;;;1.50;0.80;;;;;7.40;96148.00;;;;8368646;28;20227;-85
2022/12/30 01:01:07;;;;;;;1.80;0.90;;;;;7.40;96155.00;;;;8367035;28;20201;-85
2022/12/30 01:05:41;;;;;;;1.20;0.90;;;;;7.30;96154.00;;;;8368255;28;20200;-83
2022/12/30 01:09:44;;;;;;;1.23;0.80;;;;;7.30;96166.00;;;;8368118;28;20221;-82
2022/12/30 01:13:47;;;;;;;2.17;0.90;;;;;7.20;96168.00;;;;8368854;28;20626;-82
2022/12/30 01:17:55;;;;;;;1.53;1.03;;;;;7.20;96165.00;;;;8366986;28;20193;-82
2022/12/30 01:21:58;;;;;;;3.30;0.90;;;;;7.20;96176.00;;;;8367017;28;20193;-81
2022/12/30 01:26:04;;;;;;;2.33;0.80;;;;;7.20;96174.00;;;;8367354;28;20193;-80
2022/12/30 01:30:10;;;;;;;1.50;0.90;;;;;7.20;96174.00;;;;8366469;28;20216;-80
2022/12/30 01:34:45;;;;;;;1.33;0.83;;;;;7.10;96174.00;;;;8367174;28;20255;-78
2022/12/30 01:38:48;;;;;;;1.10;0.80;;;;;7.10;96179.00;;;;8366762;28;20633;-78
2022/12/30 01:42:51;;;;;;;1.47;0.83;;;;;7.10;96175.00;;;;8366944;28;20193;-78
2022/12/30 01:47:31;;;;;;;2.80;0.93;;;;;7.10;96178.00;;;;8367293;28;20270;-77
2022/12/30 01:51:36;;;;;;;2.47;1.07;;;;;7.10;96188.00;;;;8367083;28;20327;-77
2022/12/30 01:56:12;;;;;;;1.03;0.87;;;;;7.10;96169.00;;;;8366921;28;20585;-77
2022/12/30 02:00:15;;;;;;;3.27;0.80;;;;;7.20;96180.00;;;;8366238;28;20238;-79
2022/12/30 02:04:31;;;;;;;0.80;0.80;;;;;7.10;96183.00;;;;8365880;28;20286;-78
2022/12/30 02:09:00;;;;;;;1.97;1.10;;;;;7.10;96188.00;;;;8366510;28;20201;-78
2022/12/30 02:13:08;;;;;;;1.77;1.00;;;;;7.20;96190.00;;;;8365382;28;20233;-77
2022/12/30 02:17:43;;;;;;;2.90;0.83;;;;;7.20;96188.00;;;;8366457;28;20553;-77
2022/12/30 02:22:05;;;;;;;0.80;0.80;;;;;7.20;96192.00;;;;8365230;28;20192;-77
2022/12/30 02:26:35;;;;;;;4.00;0.80;;;;;7.20;96196.00;;;;8364133;28;20219;-77
2022/12/30 02:31:15;;;;;;;1.07;1.03;;;;;7.20;96208.00;;;;8365583;28;20228;-77
2022/12/30 02:35:28;;;;;;;7.10;3.30;;;;;7.20;96189.00;;;;8365435;28;20192;-76
2022/12/30 02:39:37;;;;;;;2.33;0.90;;;;;7.20;96186.00;;;;8365522;28;20200;-76
2022/12/30 02:48:33;;;;;;;1.83;1.20;;;;;7.20;96204.00;;;;8364667;28;20542;-76
2022/12/30 02:52:41;;;;;;;4.33;1.00;;;;;7.20;96213.00;;;;8364888;28;20684;-76
2022/12/30 02:57:25;;;;;;;1.47;1.23;;;;;7.20;96212.00;;;;8365892;28;20250;-76
2022/12/30 03:06:23;;;;;;;4.13;2.23;;;;;7.10;96219.00;;;;8287413;28;20221;-77
2022/12/30 03:14:59;;;;;;;3.80;2.70;;;;;7.00;96240.00;;;;8336710;28;20559;-77
2022/12/30 03:19:05;;;;;;;5.33;3.03;;;;;7.00;96237.00;;;;8342709;28;20197;-77
2022/12/30 03:27:33;;;;;;;4.20;2.90;;;;;7.10;96254.00;;;;8347015;28;20200;-77
2022/12/30 03:31:37;;;;;;;3.87;3.10;;;;;7.10;96247.00;;;;8349372;28;20700;-77
2022/12/30 03:35:48;;;;;;;3.53;3.10;;;;;7.10;96245.00;;;;8350786;28;20211;-77
2022/12/30 03:39:58;;;;;;;5.17;3.43;;;;;7.10;96245.00;;;;8333452;28;20211;-77
2022/12/30 03:44:02;;;;;;;6.47;3.83;;;;;7.10;96246.00;;;;8361686;28;20212;-77
2022/12/30 03:48:06;;;;;;;4.63;3.90;;;;;7.00;96261.00;;;;8346258;28;20195;-77
2022/12/30 03:52:14;;;;;;;7.27;3.90;;;;;7.00;96246.00;;;;8359425;28;20290;-77
2022/12/30 03:56:19;;;;;;;5.63;3.67;;;;;7.00;96258.00;;;;8330780;28;20201;-78
2022/12/30 04:00:23;;;;;;;4.00;3.60;;;;;6.90;96268.00;;;;8357221;28;20872;-78
2022/12/30 04:04:27;;;;;;;4.20;3.30;;;;;6.90;96268.00;;;;8352405;28;20728;-78
2022/12/30 04:08:31;;;;;;;6.23;2.97;;;;;6.90;96264.00;;;;8347368;28;20282;-78
2022/12/30 04:12:35;;;;;;;4.83;2.60;;;;;6.90;96267.00;;;;8352925;28;20228;-78
2022/12/30 04:16:39;;;;;;;3.20;2.77;;;;;6.90;96263.00;;;;8358164;28;20227;-78
2022/12/30 04:20:43;;;;;;;3.10;2.70;;;;;7.00;96270.00;;;;8354264;28;20661;-78
2022/12/30 04:24:47;;;;;;;2.50;2.30;;;;;7.00;96265.00;;;;8352938;28;20201;-78
2022/12/30 04:29:00;;;;;;;2.93;2.33;;;;;7.00;96283.00;;;;8349641;28;20204;-78
2022/12/30 04:33:08;;;;;;;4.67;2.97;;;;;7.10;96290.00;;;;8354472;28;20228;-79
2022/12/30 04:37:14;;;;;;;2.60;2.40;;;;;7.10;96283.00;;;;8346118;28;20215;-79
2022/12/30 04:41:22;;;;;;;2.87;2.63;;;;;7.10;96290.00;;;;8352547;28;20237;-80
2022/12/30 04:45:26;;;;;;;2.50;2.23;;;;;7.10;96291.00;;;;8329140;28;20962;-79
2022/12/30 04:49:31;;;;;;;3.53;2.40;;;;;7.10;96289.00;;;;8337331;28;20216;-80
2022/12/30 04:53:36;;;;;;;2.93;2.40;;;;;7.00;96286.00;;;;8335451;28;20224;-80
2022/12/30 04:57:48;;;;;;;6.07;2.53;;;;;7.00;96289.00;;;;8325107;28;20204;-79
2022/12/30 05:02:01;;;;;;;3.63;2.50;;;;;6.90;96284.00;;;;8344726;28;20231;-80
2022/12/30 05:06:08;;;;;;;7.30;2.60;;;;;6.90;96295.00;;;;8343698;28;20688;-78
2022/12/30 05:10:11;;;;;;;3.23;2.90;;;;;7.00;96301.00;;;;8347254;28;20228;-79
2022/12/30 05:14:20;;;;;;;7.77;3.10;;;;;7.00;96300.00;;;;8338161;28;20229;-79
2022/12/30 05:18:25;;;;;;;5.70;3.23;;;;;7.00;96312.00;;;;8342913;28;20198;-78
2022/12/30 05:22:29;;;;;;;5.40;2.80;;;;;6.90;96332.00;;;;8338374;28;20205;-78
2022/12/30 05:26:34;;;;;;;4.40;2.90;;;;;6.90;96338.00;;;;8341908;28;20209;-79
2022/12/30 05:30:41;;;;;;;6.67;2.77;;;;;6.80;96329.00;;;;8338788;28;20215;-80
2022/12/30 05:34:48;;;;;;;5.20;2.77;;;;;6.70;96322.00;;;;8336581;28;20193;-79
2022/12/30 05:38:58;;;;;;;3.50;2.63;;;;;6.50;96328.00;;;;8330386;28;20199;-80
2022/12/30 05:43:01;;;;;;;7.03;2.87;;;;;6.40;96325.00;;;;8341682;28;20601;-79
2022/12/30 05:47:05;;;;;;;3.20;2.60;;;;;6.30;96323.00;;;;8345049;28;20200;-80
2022/12/30 05:51:11;;;;;;;3.20;2.63;;;;;6.20;96331.00;;;;8339920;28;20239;-79
2022/12/30 05:55:17;;;;;;;4.33;3.27;;;;;6.20;96337.00;;;;8329392;28;20278;-79
2022/12/30 05:59:20;;;;;;;6.03;3.40;;;;;6.10;96336.00;;;;8351438;28;20208;-79
2022/12/30 06:03:24;;;;;;;4.97;3.23;;;;;6.10;96338.00;;;;8345314;28;20254;-79
2022/12/30 06:07:33;;;;;;;11.47;4.13;;;;;6.20;96349.00;;;;8341434;28;20193;-78
2022/12/30 06:11:42;;;;;;;7.87;3.20;;;;;6.10;96344.00;;;;8337822;28;20225;-79
2022/12/30 06:15:45;;;;;;;4.47;3.13;;;;;6.00;96347.00;;;;8343147;28;20204;-79
2022/12/30 06:19:51;;;;;;;6.90;3.27;;;;;5.80;96348.00;;;;8342728;28;20205;-80
2022/12/30 06:23:58;;;;;;;5.13;2.53;;;;;5.70;96343.00;;;;8345024;28;20224;-78
2022/12/30 06:28:06;;;;;;;6.20;3.20;;;;;5.50;96348.00;;;;8317809;28;20209;-78
2022/12/30 06:32:13;;;;;;;7.77;3.30;;;;;5.40;96356.00;;;;8350497;28;20939;-78
2022/12/30 06:36:17;;;;;;;7.07;3.30;;;;;5.40;96343.00;;;;8319520;28;20201;-79
2022/12/30 06:40:28;;;;;;;4.43;3.30;;;;;5.50;96337.00;;;;8356857;28;20280;-80
2022/12/30 06:44:31;;;;;;;4.80;3.20;;;;;5.60;96334.00;;;;8343501;28;20565;-81
2022/12/30 06:48:37;;;;;;;8.93;3.40;;;;;5.50;96340.00;;;;8342693;28;20205;-80
2022/12/30 06:52:42;;;;;;;6.70;3.07;;;;;5.40;96338.00;;;;8344517;28;20448;-81
2022/12/30 06:56:47;;;;;;;7.57;4.63;;;;;5.20;96336.00;;;;8347316;28;20204;-82
2022/12/30 07:00:51;;;;;;;50.90;5.00;;;;;5.00;96347.00;;;;8337853;28;20199;-81
2022/12/30 07:04:57;;;;;;;17.07;3.77;;;;;4.80;96354.00;;;;8336085;28;20763;-82
2022/12/30 07:09:00;;;;;;;256.10;10.20;;;;;4.70;96358.00;;;;8339129;28;20205;-82
2022/12/30 07:13:06;;;;;;;225.10;10.83;;;;;4.70;96371.00;;;;8338102;28;20275;-82
2022/12/30 07:17:11;;;;;;;224.63;9.80;;;;;4.70;96375.00;;;;8333081;28;20372;-81
2022/12/30 07:21:19;;;;;;;192.53;9.53;;;;;4.80;96363.00;;;;8327920;28;20201;-81
2022/12/30 07:25:24;;;;;;;59.50;5.97;;;;;4.90;96377.00;;;;8332102;28;20258;-81
2022/12/30 07:29:32;;;;;;;155.20;10.20;;;;;5.10;96386.00;;;;8333439;28;20316;-81
2022/12/30 07:33:36;;;;;;;10.50;4.07;;;;;5.20;96379.00;;;;8337902;28;20225;-82
2022/12/30 07:37:42;;;;;;;10.30;4.70;;;;;5.40;96376.00;;;;8343478;28;20265;-80
2022/12/30 07:41:51;;;;;;;15.37;6.30;;;;;5.70;96371.00;;;;8344833;28;20202;-82
2022/12/30 07:45:55;;;;;;;14.80;6.80;;;;;5.90;96371.00;;;;8340853;28;20720;-82
2022/12/30 07:49:58;;;;;;;20.07;7.67;;;;;6.00;96377.00;;;;8343295;28;20205;-83
2022/12/30 07:54:04;;;;;;;23.90;7.67;;;;;6.20;96393.00;;;;8359684;28;20267;-82
2022/12/30 07:58:10;;;;;;;19.93;7.50;;;;;6.30;96397.00;;;;8344787;28;20582;-82
2022/12/30 08:02:20;;;;;;;23.83;8.23;;;;;6.40;96392.00;;;;8352159;28;20294;-82
2022/12/30 08:06:24;;;;;;;18.17;7.53;;;;;6.50;96386.00;;;;8348299;28;20261;-89
2022/12/30 08:10:31;;;;;;;13.93;5.93;;;;;6.60;96386.00;;;;8348970;28;20255;-80
2022/12/30 08:14:35;;;;;;;20.87;6.83;;;;;6.70;96398.00;;;;8350465;28;20233;-81
2022/12/30 08:18:44;;;;;;;15.87;6.83;;;;;6.80;96399.00;;;;8329475;28;20266;-81
2022/12/30 08:22:47;;;;;;;15.13;6.17;;;;;6.80;96391.00;;;;8350996;28;20828;-81
2022/12/30 08:26:50;;;;;;;15.73;5.90;;;;;6.80;96410.00;;;;8354753;28;20208;-79
2022/12/30 08:30:54;;;;;;;9.57;5.80;;;;;6.90;96402.00;;;;8333874;28;20226;-77
2022/12/30 08:34:59;;;;;;;12.60;5.30;;;;;7.00;96402.00;;;;8343051;28;20217;-77
2022/12/30 08:44:18;;;;;;;13.60;5.37;;;;;7.20;96406.00;;;;8368682;28;20640;-76
2022/12/30 08:48:55;;;;;;;8.77;4.93;;;;;7.30;96406.00;;;;8366045;28;20197;-76
2022/12/30 08:53:37;;;;;;;10.73;4.97;;;;;7.40;96414.00;;;;8368296;28;20221;-79
2022/12/30 08:58:13;;;;;;;10.87;5.07;;;;;7.50;96412.00;;;;8367204;28;20206;-78
2022/12/30 09:02:18;;;;;;;8.90;4.50;;;;;7.50;96418.00;;;;8368654;28;20661;-78
2022/12/30 09:06:23;;;;;;;9.43;4.30;;;;;7.50;96401.00;;;;8367541;28;20713;-78
2022/12/30 09:10:35;;;;;;;11.73;5.20;;;;;7.50;96398.00;;;;8368149;28;20568;-78
2022/12/30 09:15:10;;;;;;;7.83;4.40;;;;;7.60;96396.00;;;;8365409;28;20221;-78
2022/12/30 09:19:14;;;;;;;9.33;4.73;;;;;7.70;96404.00;;;;8366828;28;20236;-78
2022/12/30 09:23:55;;;;;;;7.53;4.50;;;;;7.60;96397.00;;;;8367444;28;20185;-78
2022/12/30 09:28:00;;;;;;;9.77;5.20;;;;;7.60;96396.00;;;;8367516;28;20242;-78
2022/12/30 09:32:37;;;;;;;9.13;5.53;;;;;7.60;96399.00;;;;8363205;28;20247;-77
2022/12/30 09:36:42;;;;;;;5.70;3.93;;;;;7.70;96392.00;;;;8367072;28;20250;-77
2022/12/30 09:41:17;;;;;;;7.80;4.60;;;;;7.70;96379.00;;;;8344779;28;20219;-79
2022/12/30 09:45:28;;;;;;;10.17;4.73;;;;;7.80;96388.00;;;;8367400;28;20200;-79
2022/12/30 09:50:01;;;;;;;7.53;4.57;;;;;7.80;96389.00;;;;8366726;28;20201;-79
2022/12/30 09:54:11;;;;;;;7.27;4.83;;;;;7.70;96382.00;;;;8367323;28;20593;-79
2022/12/30 09:58:26;;;;;;;9.07;6.63;;;;;7.60;96376.00;;;;8366611;28;20633;-79
2022/12/30 10:02:56;;;;;;;9.20;5.83;;;;;7.60;96373.00;;;;8366827;28;20229;-79
2022/12/30 10:07:07;;;;;;;7.67;5.47;;;;;7.70;96370.00;;;;8348306;28;20213;-83
2022/12/30 10:11:46;;;;;;;8.33;5.90;;;;;7.70;96364.00;;;;8365487;28;20200;-80
2022/12/30 10:15:56;;;;;;;7.43;5.80;;;;;7.70;96355.00;;;;8366630;28;20254;-77
2022/12/30 10:20:24;;;;;;;6.73;5.07;;;;;7.70;96348.00;;;;8365705;28;20200;-77
2022/12/30 10:25:02;;;;;;;6.00;5.00;;;;;7.70;96340.00;;;;8366159;28;20189;-77
2022/12/30 10:29:18;;;;;;;8.90;7.10;;;;;7.70;96320.00;;;;8366459;28;20197;-77
2022/12/30 10:33:48;;;;;;;5.90;4.87;;;;;7.80;96319.00;;;;8365335;28;20221;-77
2022/12/30 10:37:58;;;;;;;5.60;4.80;;;;;7.90;96302.00;;;;8363084;28;20666;-77
2022/12/30 10:42:25;;;;;;;6.77;4.40;;;;;8.10;96293.00;;;;8365519;28;20201;-78
2022/12/30 10:47:03;;;;;;;4.73;4.23;;;;;8.40;96300.00;;;;8364205;28;20582;-80
2022/12/30 10:51:17;;;;;;;3.67;3.37;;;;;8.60;96286.00;;;;8365154;28;20197;-79
2022/12/30 10:55:46;;;;;;;3.40;2.87;;;;;8.70;96282.00;;;;8365591;28;20228;-79
2022/12/30 11:00:17;;;;;;;3.30;2.73;;;;;8.80;96272.00;;;;8364761;28;20604;-79
2022/12/30 11:04:56;;;;;;;2.93;2.63;;;;;8.90;96275.00;;;;8365087;28;20585;-76
2022/12/30 11:09:17;;;;;;;2.70;2.50;;;;;8.90;96267.00;;;;8364577;28;20274;-77
2022/12/30 11:18:02;;;;;;;6.50;3.47;;;;;8.90;96251.00;;;;8364496;28;20200;-77
2022/12/30 11:22:09;;;;;;;4.30;3.70;;;;;9.00;96242.00;;;;8361455;28;20687;-77
2022/12/30 11:26:47;;;;;;;4.73;4.33;;;;;9.10;96244.00;;;;8364772;28;20200;-76
2022/12/30 11:31:11;;;;;;;5.20;4.70;;;;;9.20;96230.00;;;;8346851;28;20197;-76
2022/12/30 11:35:33;;;;;;;4.80;4.30;;;;;9.40;96227.00;;;;8364542;28;20538;-76
2022/12/30 11:39:51;;;;;;;7.03;5.28;;;;;9.50;96215.00;;;;8360654;28;20196;-75
2022/12/30 11:44:28;;;;;;;5.47;4.97;;;;;9.70;96209.00;;;;8363425;28;20552;-75
2022/12/30 11:49:05;;;;;;;5.90;4.80;;;;;9.70;96196.00;;;;8361613;28;20203;-75
2022/12/30 11:53:40;;;;;;;6.10;5.43;;;;;9.60;96195.00;;;;8370431;28;20242;-75
2022/12/30 11:58:17;;;;;;;4.88;4.45;;;;;9.80;96186.00;;;;8370325;28;20246;-74
2022/12/30 12:03:00;;;;;;;3.67;2.95;;;;;10.10;96184.00;;;;8368802;28;20594;-74
2022/12/30 12:07:35;;;;;;;2.97;2.78;;;;;10.20;96172.00;;;;8369947;28;20289;-74
2022/12/30 12:17:19;;;;;;;2.88;2.67;;;;;10.20;96174.00;;;;8367996;28;20220;-74
2022/12/30 12:21:51;;;;;;;1.85;1.60;;;;;10.20;96167.00;;;;8369262;28;20211;-74
2022/12/30 12:26:24;;;;;;;1.80;1.60;;;;;10.30;96162.00;;;;8369697;28;20254;-74
2022/12/30 12:31:15;;;;;;;1.77;1.52;;;;;10.40;96168.00;;;;8368946;28;20200;-74
2022/12/30 12:35:46;;;;;;;1.45;1.40;;;;;10.40;96169.00;;;;8369962;28;20226;-74
2022/12/30 12:40:03;;;;;;;1.42;1.40;;;;;10.30;96151.00;;;;8368570;28;20204;-74
2022/12/30 12:44:36;;;;;;;1.15;1.15;;;;;10.30;96165.00;;;;8369114;28;20255;-74
2022/12/30 12:49:12;;;;;;;3.35;1.35;;;;;10.30;96159.00;;;;8368415;28;20262;-74
2022/12/30 12:53:46;;;;;;;1.33;1.27;;;;;10.30;96157.00;;;;8368064;28;20252;-75
2022/12/30 12:58:23;;;;;;;1.25;1.17;;;;;10.30;96160.00;;;;8367822;28;20250;-76
2022/12/30 13:03:03;;;;;;;1.40;1.30;;;;;10.30;96157.00;;;;8368961;28;20240;-76
2022/12/30 13:07:34;;;;;;;1.27;1.17;;;;;10.10;96162.00;;;;8367340;28;20204;-76
2022/12/30 13:12:04;;;;;;;1.08;1.08;;;;;9.90;96155.00;;;;8353545;28;20206;-76
2022/12/30 13:16:37;;;;;;;1.25;1.25;;;;;9.70;96142.00;;;;8368708;28;20586;-77
2022/12/30 13:21:15;;;;;;;1.27;1.20;;;;;9.60;96135.00;;;;8364522;28;20239;-77
2022/12/30 13:26:04;;;;;;;1.05;1.00;;;;;9.60;96132.00;;;;8368344;28;20205;-77
2022/12/30 13:30:14;;;;;;;1.60;1.50;;;;;9.70;96120.00;;;;8304739;28;20246;-77
2022/12/30 13:34:32;;;;;;;1.20;1.20;;;;;9.60;96122.00;;;;8367333;28;20601;-76
2022/12/30 13:39:02;;;;;;;2.42;1.40;;;;;9.70;96120.00;;;;8351069;28;20199;-76
2022/12/30 13:43:22;;;;;;;1.30;1.30;;;;;9.70;96120.00;;;;8367600;28;20421;-76
2022/12/30 13:47:44;;;;;;;1.35;1.30;;;;;9.70;96115.00;;;;8367227;28;20199;-76
2022/12/30 13:51:54;;;;;;;1.27;1.10;;;;;9.70;96106.00;;;;8366629;28;20235;-76
2022/12/30 13:55:58;;;;;;;1.42;1.30;;;;;9.60;96099.00;;;;8366777;28;20220;-76
2022/12/30 14:00:11;;;;;;;1.40;1.40;;;;;9.50;96092.00;;;;8348802;28;20207;-76
2022/12/30 14:04:33;;;;;;;1.30;1.20;;;;;9.30;96099.00;;;;8366713;28;20263;-76
2022/12/30 14:08:49;;;;;;;5.00;1.40;;;;;9.20;96099.00;;;;8366447;28;20192;-76
2022/12/30 14:13:15;;;;;;;1.63;1.40;;;;;9.20;96108.00;;;;8365666;28;20247;-76
2022/12/30 14:17:32;;;;;;;2.25;2.05;;;;;9.20;96103.00;;;;8367161;28;20653;-76
2022/12/30 14:21:49;;;;;;;4.95;3.53;;;;;9.20;96090.00;;;;8348865;28;20317;-76
2022/12/30 14:25:55;;;;;;;2.88;1.80;;;;;9.10;96080.00;;;;8366611;28;20185;-76
2022/12/30 14:30:34;;;;;;;3.50;1.45;;;;;9.00;96071.00;;;;8363365;28;20255;-76
2022/12/30 14:34:39;;;;;;;1.95;1.30;;;;;8.90;96062.00;;;;8361700;28;20259;-76
2022/12/30 14:39:11;;;;;;;1.40;1.40;;;;;8.90;96052.00;;;;8363903;28;20201;-75
2022/12/30 14:43:55;;;;;;;1.50;1.50;;;;;8.80;96058.00;;;;8364855;28;20196;-75
2022/12/30 14:48:35;;;;;;;1.13;1.13;;;;;8.70;96060.00;;;;8364939;28;20193;-75
2022/12/30 14:53:12;;;;;;;1.38;1.30;;;;;8.70;96060.00;;;;8365171;28;20507;-75
2022/12/30 14:57:47;;;;;;;1.40;1.30;;;;;8.60;96053.00;;;;8364165;28;20220;-75
2022/12/30 15:02:22;;;;;;;7.10;3.57;;;;;8.50;96051.00;;;;8365274;28;20225;-74
2022/12/30 15:07:09;;;;;;;4.10;2.60;;;;;8.50;96043.00;;;;8364885;28;20197;-74
2022/12/30 15:11:19;;;;;;;4.60;2.60;;;;;8.50;96050.00;;;;8363964;28;20472;-75
2022/12/30 15:15:27;;;;;;;9.53;3.40;;;;;8.40;96039.00;;;;8364512;28;20212;-75
2022/12/30 15:19:37;;;;;;;2.10;2.00;;;;;8.40;96038.00;;;;8365204;28;20231;-74
2022/12/30 15:24:14;;;;;;;1.70;1.60;;;;;8.40;96041.00;;;;8363412;28;20190;-74
2022/12/30 15:28:19;;;;;;;3.60;2.00;;;;;8.40;96031.00;;;;8364047;28;20515;-74
2022/12/30 15:32:29;;;;;;;36.80;23.20;;;;;8.30;96017.00;;;;8363786;28;20193;-74
2022/12/30 15:36:58;;;;;;;17.45;12.65;;;;;8.30;96019.00;;;;8362684;28;20220;-74
2022/12/30 15:41:06;;;;;;;127.70;72.40;;;;;8.30;96019.00;;;;8364263;28;20207;-74
2022/12/30 15:45:38;;;;;;;118.32;68.55;;;;;8.20;96008.00;;;;8363885;28;20650;-73
2022/12/30 15:50:26;;;;;;;639.80;302.57;;;;;8.20;96009.00;;;;8362452;28;20646;-74
2022/12/30 15:54:52;;;;;;;303.30;115.40;;;;;8.20;96024.00;;;;8363621;28;20204;-74
2022/12/30 15:59:28;;;;;;;58.63;45.60;;;;;8.30;96019.00;;;;8362833;28;20204;-74
2022/12/30 16:03:34;;;;;;;141.53;87.43;;;;;8.40;96009.00;;;;8363664;28;20601;-76
2022/12/30 16:08:13;;;;;;;10.30;6.70;;;;;8.40;96009.00;;;;8362532;28;20181;-76
2022/12/30 16:12:53;;;;;;;20.85;16.95;;;;;8.40;96009.00;;;;8361675;28;20227;-76
2022/12/30 16:17:29;;;;;;;7.87;4.73;;;;;8.40;96010.00;;;;8363242;28;20262;-75
2022/12/30 16:21:38;;;;;;;9.67;8.33;;;;;8.40;96000.00;;;;8362930;28;20591;-76
2022/12/30 16:25:41;;;;;;;8.10;5.93;;;;;8.40;96004.00;;;;8363642;28;20557;-76
2022/12/30 16:29:47;;;;;;;13.70;12.30;;;;;8.30;95992.00;;;;8362569;28;20197;-75
2022/12/30 16:33:55;;;;;;;13.30;11.10;;;;;8.30;95994.00;;;;8364822;28;20288;-75
2022/12/30 16:38:30;;;;;;;10.90;7.17;;;;;8.20;96005.00;;;;8368051;28;20316;-75
2022/12/30 16:42:37;;;;;;;76.60;49.53;;;;;8.20;95999.00;;;;8368944;28;20200;-75
2022/12/30 16:46:40;;;;;;;36.03;23.13;;;;;8.20;96009.00;;;;8366345;28;20270;-75
2022/12/30 16:51:21;;;;;;;8.70;6.45;;;;;8.20;96010.00;;;;8368683;28;20197;-75
2022/12/30 16:55:52;;;;;;;7.67;6.97;;;;;8.20;96034.00;;;;8366867;28;20251;-75
2022/12/30 17:00:32;;;;;;;28.20;24.10;;;;;8.20;96064.00;;;;8366377;28;20239;-73
2022/12/30 17:04:42;;;;;;;19.60;17.40;;;;;8.30;96069.00;;;;8368031;28;20558;-73
2022/12/30 17:08:47;;;;;;;154.57;109.00;;;;;8.30;96088.00;;;;8366953;28;20201;-73
2022/12/30 17:13:12;;;;;;;8.40;6.30;;;;;8.30;96099.00;;;;8368026;28;20196;-73
2022/12/30 17:17:16;;;;;;;6.10;4.53;;;;;8.30;96102.00;;;;8368619;28;20221;-73
2022/12/30 17:21:21;;;;;;;6.05;4.18;;;;;8.20;96104.00;;;;8367392;28;20567;-74
2022/12/30 17:25:26;;;;;;;6.73;3.80;;;;;8.20;96098.00;;;;8367709;28;20343;-74
2022/12/30 17:30:03;;;;;;;7.47;3.83;;;;;8.00;96092.00;;;;8367195;28;20227;-75
2022/12/30 17:34:37;;;;;;;7.10;4.07;;;;;7.90;96088.00;;;;8366704;28;20197;-75
2022/12/30 17:39:17;;;;;;;10.27;5.43;;;;;7.90;96086.00;;;;8367740;28;20278;-76
2022/12/30 17:43:53;;;;;;;4.23;2.90;;;;;7.80;96078.00;;;;8367591;28;20282;-76
2022/12/30 17:48:27;;;;;;;9.20;5.03;;;;;7.80;96074.00;;;;8366667;28;20189;-76
2022/12/30 17:52:35;;;;;;;9.07;4.53;;;;;7.80;96068.00;;;;8366798;28;20177;-75
2022/12/30 17:57:12;;;;;;;5.25;3.58;;;;;7.70;96057.00;;;;8366703;28;20225;-75
2022/12/30 18:01:17;;;;;;;5.83;3.40;;;;;7.70;96051.00;;;;8365326;28;20523;-76
2022/12/30 18:05:55;;;;;;;14.83;9.90;;;;;7.70;96051.00;;;;8366928;28;20196;-75
2022/12/30 18:09:58;;;;;;;9.67;7.43;;;;;7.70;96056.00;;;;8366320;28;20201;-75
2022/12/30 18:14:36;;;;;;;4.25;3.53;;;;;7.70;96050.00;;;;8365885;28;20200;-75
2022/12/30 18:19:13;;;;;;;5.37;2.90;;;;;7.70;96042.00;;;;8365264;28;20221;-76
2022/12/30 18:23:16;;;;;;;6.63;3.90;;;;;7.70;96039.00;;;;8365183;28;20235;-77
2022/12/30 18:27:22;;;;;;;10.17;4.80;;;;;7.70;96031.00;;;;8365717;28;20594;-81
2022/12/30 18:31:31;;;;;;;8.87;3.60;;;;;7.70;96034.00;;;;8365556;28;20573;-79
2022/12/30 18:36:03;;;;;;;3.67;3.27;;;;;7.70;96032.00;;;;8365556;28;20585;-77
2022/12/30 18:40:16;;;;;;;28.87;25.70;;;;;7.80;96026.00;;;;8364942;28;20197;-77
2022/12/30 18:44:21;;;;;;;14.60;10.27;;;;;7.80;96025.00;;;;8364639;28;20193;-77
2022/12/30 18:48:24;;;;;;;8.27;4.80;;;;;7.80;96026.00;;;;8365564;28;20200;-78
2022/12/30 18:52:28;;;;;;;8.30;4.80;;;;;7.80;96029.00;;;;8364188;28;20546;-78
2022/12/30 18:56:32;;;;;;;14.37;8.47;;;;;7.80;96031.00;;;;8363544;28;20274;-78
2022/12/30 19:00:40;;;;;;;6.33;4.87;;;;;7.80;96028.00;;;;8365149;28;20276;-77
2022/12/30 19:04:45;;;;;;;6.43;4.20;;;;;7.80;96047.00;;;;8364675;28;20223;-80
2022/12/30 19:08:52;;;;;;;8.03;4.63;;;;;7.80;96039.00;;;;8364732;28;20255;-79
2022/12/30 19:12:56;;;;;;;7.13;4.73;;;;;7.80;96040.00;;;;8364524;28;20270;-78
2022/12/30 19:16:59;;;;;;;7.00;4.40;;;;;7.90;96045.00;;;;8361134;28;20224;-79
2022/12/30 19:21:10;;;;;;;6.37;3.87;;;;;7.90;96031.00;;;;8360415;28;20220;-78
2022/12/30 19:25:17;;;;;;;5.37;3.70;;;;;7.90;96036.00;;;;8362238;28;20274;-77
2022/12/30 19:29:48;;;;;;;8.03;4.10;;;;;7.80;96033.00;;;;8361611;28;20201;-78
2022/12/30 19:33:54;;;;;;;4.17;3.70;;;;;7.90;96040.00;;;;8358340;28;20196;-79
2022/12/30 19:38:30;;;;;;;7.07;4.20;;;;;7.90;96048.00;;;;8345882;28;20542;-78
2022/12/30 19:42:38;;;;;;;7.17;4.33;;;;;7.90;96043.00;;;;8364464;28;20254;-78
2022/12/30 19:47:11;;;;;;;7.87;4.50;;;;;7.90;96038.00;;;;8363555;28;20581;-78
2022/12/30 19:51:49;;;;;;;8.87;3.80;;;;;7.90;96045.00;;;;8364709;28;20584;-77
2022/12/30 19:55:52;;;;;;;4.73;3.90;;;;;8.00;96045.00;;;;8363434;28;20240;-77
2022/12/30 20:00:00;;;;;;;11.00;5.67;;;;;8.00;96024.00;;;;8364168;28;20634;-77
2022/12/30 20:04:06;;;;;;;15.93;9.13;;;;;8.00;96013.00;;;;8362985;28;20217;-78
2022/12/30 20:08:37;;;;;;;7.07;4.57;;;;;8.00;96020.00;;;;8366117;28;20246;-78
2022/12/30 20:12:41;;;;;;;6.37;4.07;;;;;8.10;96024.00;;;;8370181;28;20203;-78
2022/12/30 20:17:19;;;;;;;6.83;4.53;;;;;8.10;96014.00;;;;8369727;28;20229;-77
2022/12/30 20:21:24;;;;;;;10.53;5.03;;;;;8.10;96031.00;;;;8370336;28;20634;-78
2022/12/30 20:25:27;;;;;;;6.00;4.67;;;;;8.10;96028.00;;;;8369713;28;20189;-80
2022/12/30 20:29:30;;;;;;;11.83;5.63;;;;;8.20;96029.00;;;;8369330;28;20247;-79
2022/12/30 20:33:36;;;;;;;8.67;6.30;;;;;8.20;96039.00;;;;8351882;28;20223;-82
2022/12/30 20:38:13;;;;;;;11.10;6.15;;;;;8.20;96030.00;;;;8368902;28;20205;-81
2022/12/30 20:42:16;;;;;;;9.50;5.43;;;;;8.20;96033.00;;;;8369811;28;20196;-81
2022/12/30 20:46:19;;;;;;;9.65;5.78;;;;;8.30;96046.00;;;;8368207;28;20628;-81
2022/12/30 20:50:27;;;;;;;10.10;5.83;;;;;8.30;96034.00;;;;8368864;28;20235;-81
2022/12/30 20:55:02;;;;;;;12.67;5.37;;;;;8.40;96046.00;;;;8369439;28;20657;-79
2022/12/30 20:59:07;;;;;;;10.57;5.60;;;;;8.50;96044.00;;;;8368157;28;20263;-80
2022/12/30 21:03:45;;;;;;;11.43;6.10;;;;;8.50;96038.00;;;;8368577;28;20286;-78
2022/12/30 21:08:21;;;;;;;11.43;5.60;;;;;8.50;96039.00;;;;8368732;28;20197;-80
2022/12/30 21:17:23;;;;;;;8.87;5.30;;;;;8.60;96039.00;;;;8367721;28;20538;-78
2022/12/30 21:21:27;;;;;;;8.43;5.47;;;;;8.60;96038.00;;;;8365850;28;20251;-78
2022/12/30 21:25:40;;;;;;;7.80;5.07;;;;;8.70;96051.00;;;;8366773;28;20197;-78
2022/12/30 21:29:43;;;;;;;7.43;4.60;;;;;8.70;96052.00;;;;8365741;28;20193;-78
2022/12/30 21:34:20;;;;;;;6.67;4.50;;;;;8.70;96047.00;;;;8367609;28;20197;-78
2022/12/30 22:05:34;;;;;;;9.80;4.95;;;;;8.90;96096.00;;;;8231604;28;20219;-77
2022/12/30 22:09:37;;;;;;;14.18;5.50;;;;;9.00;96102.00;;;;8342620;28;20593;-76
2022/12/30 22:14:14;;;;;;;9.30;5.38;;;;;9.00;96104.00;;;;8366004;28;20634;-77
2022/12/30 22:18:20;;;;;;;10.90;5.30;;;;;9.10;96097.00;;;;8366519;28;20224;-76
2022/12/30 22:22:30;;;;;;;9.27;5.47;;;;;9.10;96110.00;;;;8365704;28;20225;-77
2022/12/30 22:27:00;;;;;;;9.37;5.23;;;;;9.10;96113.00;;;;8366397;28;20568;-77
2022/12/30 22:31:04;;;;;;;10.98;5.60;;;;;9.10;96114.00;;;;8365506;28;20299;-77
2022/12/30 22:35:49;;;;;;;11.10;5.20;;;;;9.20;96105.00;;;;8364066;28;20189;-76
2022/12/30 22:40:21;;;;;;;7.00;4.00;;;;;9.30;96111.00;;;;8364337;28;20229;-76
2022/12/30 22:44:26;;;;;;;8.45;4.43;;;;;9.40;96110.00;;;;8364715;28;20206;-76
2022/12/30 22:49:03;;;;;;;8.55;4.70;;;;;9.50;96116.00;;;;8364463;28;20313;-76
2022/12/30 22:53:44;;;;;;;6.43;4.20;;;;;9.60;96110.00;;;;8364047;28;20243;-81
2022/12/30 22:58:15;;;;;;;5.75;3.75;;;;;9.60;96121.00;;;;8365164;28;20224;-83
2022/12/30 23:02:52;;;;;;;6.63;3.75;;;;;9.60;96111.00;;;;8363802;28;20209;-80
2022/12/30 23:06:55;;;;;;;7.25;3.80;;;;;9.60;96117.00;;;;8364227;28;20261;-79
2022/12/30 23:11:00;;;;;;;7.22;3.30;;;;;9.70;96141.00;;;;8364742;28;20634;-77